sensor_id;sensor_type;location;lat;lon;timestamp;pressure;altitude;pressure_sealevel;temperature;humidity
68656;BME280;55638;51.122;13.606;2022-09-20T00:00:09;100270.09;;;8.02;64.54
68656;BME280;55638;51.122;13.606;2022-09-20T00:01:42;100271.06;;;8.01;64.56
68656;BME280;55638;51.122;13.606;2022-09-20T00:03:14;100261.28;;;8.00;64.51
68656;BME280;55638;51.122;13.606;2022-09-20T00:04:47;100271.16;;;8.00;64.49
68656;BME280;55638;51.122;13.606;2022-09-20T00:06:20;100265.06;;;7.98;64.56
68656;BME280;55638;51.122;13.606;2022-09-20T00:07:52;100262.38;;;7.98;64.52
68656;BME280;55638;51.122;13.606;2022-09-20T00:09:23;100272.28;;;7.97;64.64
68656;BME280;55638;51.122;13.606;2022-09-20T00:11:37;100268.72;;;7.97;64.53
68656;BME280;55638;51.122;13.606;2022-09-20T00:12:50;100275.06;;;7.96;64.53
68656;BME280;55638;51.122;13.606;2022-09-20T00:14:22;100268.84;;;7.95;64.54
68656;BME280;55638;51.122;13.606;2022-09-20T00:15:54;100266.16;;;7.95;64.73
68656;BME280;55638;51.122;13.606;2022-09-20T00:17:26;100268.00;;;7.95;64.68
68656;BME280;55638;51.122;13.606;2022-09-20T00:18:59;100268.97;;;7.94;64.69
68656;BME280;55638;51.122;13.606;2022-09-20T00:20:30;100266.28;;;7.94;64.73
68656;BME280;55638;51.122;13.606;2022-09-20T00:22:02;100264.56;;;7.93;64.79
68656;BME280;55638;51.122;13.606;2022-09-20T00:23:34;100264.56;;;7.93;64.71
68656;BME280;55638;51.122;13.606;2022-09-20T00:25:07;100264.56;;;7.93;64.74
68656;BME280;55638;51.122;13.606;2022-09-20T00:26:38;100267.25;;;7.93;64.72
68656;BME280;55638;51.122;13.606;2022-09-20T00:28:11;100270.78;;;7.93;64.92
68656;BME280;55638;51.122;13.606;2022-09-20T00:29:43;100260.91;;;7.94;64.80
68656;BME280;55638;51.122;13.606;2022-09-20T00:31:14;100265.41;;;7.93;64.76
68656;BME280;55638;51.122;13.606;2022-09-20T00:32:46;100265.31;;;7.95;64.86
68656;BME280;55638;51.122;13.606;2022-09-20T00:34:18;100263.59;;;7.94;64.86
68656;BME280;55638;51.122;13.606;2022-09-20T00:36:08;100268.09;;;7.93;64.99
68656;BME280;55638;51.122;13.606;2022-09-20T00:37:40;100268.97;;;7.94;64.82
68656;BME280;55638;51.122;13.606;2022-09-20T00:39:13;100275.31;;;7.93;64.92
68656;BME280;55638;51.122;13.606;2022-09-20T00:40:45;100275.22;;;7.94;64.90
68656;BME280;55638;51.122;13.606;2022-09-20T00:42:17;100274.44;;;7.92;65.03
68656;BME280;55638;51.122;13.606;2022-09-20T00:43:49;100275.31;;;7.93;65.05
68656;BME280;55638;51.122;13.606;2022-09-20T00:45:22;100278.00;;;7.93;64.97
68656;BME280;55638;51.122;13.606;2022-09-20T00:46:54;100269.94;;;7.93;64.90
68656;BME280;55638;51.122;13.606;2022-09-20T00:48:27;100272.63;;;7.93;64.94
68656;BME280;55638;51.122;13.606;2022-09-20T00:51:35;100269.94;;;7.93;65.11
68656;BME280;55638;51.122;13.606;2022-09-20T00:53:22;100263.69;;;7.92;64.98
68656;BME280;55638;51.122;13.606;2022-09-20T00:54:57;100269.94;;;7.93;65.09
68656;BME280;55638;51.122;13.606;2022-09-20T00:56:33;100269.94;;;7.93;65.13
68656;BME280;55638;51.122;13.606;2022-09-20T00:58:06;100268.09;;;7.93;65.15
68656;BME280;55638;51.122;13.606;2022-09-20T00:59:39;100271.66;;;7.94;65.01
68656;BME280;55638;51.122;13.606;2022-09-20T01:01:12;100270.69;;;7.95;65.01
68656;BME280;55638;51.122;13.606;2022-09-20T01:02:47;100279.72;;;7.94;65.00
68656;BME280;55638;51.122;13.606;2022-09-20T01:04:19;100276.06;;;7.95;65.06
68656;BME280;55638;51.122;13.606;2022-09-20T01:05:53;100268.00;;;7.95;65.10
68656;BME280;55638;51.122;13.606;2022-09-20T01:07:26;100268.00;;;7.95;65.19
68656;BME280;55638;51.122;13.606;2022-09-20T01:08:58;100275.22;;;7.94;65.04
68656;BME280;55638;51.122;13.606;2022-09-20T01:10:32;100275.94;;;7.96;65.15
68656;BME280;55638;51.122;13.606;2022-09-20T01:12:05;100274.22;;;7.95;65.08
68656;BME280;55638;51.122;13.606;2022-09-20T01:13:39;100269.84;;;7.94;65.27
68656;BME280;55638;51.122;13.606;2022-09-20T01:15:11;100275.94;;;7.96;65.19
68656;BME280;55638;51.122;13.606;2022-09-20T01:16:44;100275.06;;;7.96;65.11
68656;BME280;55638;51.122;13.606;2022-09-20T01:18:17;100279.59;;;7.95;65.16
68656;BME280;55638;51.122;13.606;2022-09-20T01:19:55;100274.09;;;7.97;65.25
68656;BME280;55638;51.122;13.606;2022-09-20T01:21:30;100272.38;;;7.96;65.08
68656;BME280;55638;51.122;13.606;2022-09-20T01:28:05;100266.91;;;7.97;65.11
68656;BME280;55638;51.122;13.606;2022-09-20T01:29:44;100271.41;;;7.97;65.18
68656;BME280;55638;51.122;13.606;2022-09-20T01:31:22;100263.34;;;7.97;65.19
68656;BME280;55638;51.122;13.606;2022-09-20T01:34:33;100271.41;;;7.97;65.20
68656;BME280;55638;51.122;13.606;2022-09-20T01:36:05;100266.03;;;7.97;65.17
68656;BME280;55638;51.122;13.606;2022-09-20T01:42:55;100270.44;;;7.98;65.34
68656;BME280;55638;51.122;13.606;2022-09-20T01:44:51;100271.16;;;8.00;65.22
68656;BME280;55638;51.122;13.606;2022-09-20T01:48:08;100270.22;;;8.01;65.37
68656;BME280;55638;51.122;13.606;2022-09-20T01:51:55;100272.91;;;8.01;65.34
68656;BME280;55638;51.122;13.606;2022-09-20T01:57:30;100276.44;;;8.01;65.31
68656;BME280;55638;51.122;13.606;2022-09-20T02:01:05;100276.44;;;8.01;65.35
68656;BME280;55638;51.122;13.606;2022-09-20T02:04:30;100268.25;;;8.03;65.25
68656;BME280;55638;51.122;13.606;2022-09-20T02:07:47;100277.19;;;8.03;65.24
68656;BME280;55638;51.122;13.606;2022-09-20T02:11:07;100279.00;;;8.03;65.28
68656;BME280;55638;51.122;13.606;2022-09-20T02:12:51;100280.84;;;8.02;65.34
68656;BME280;55638;51.122;13.606;2022-09-20T02:21:46;100279.13;;;8.01;65.29
68656;BME280;55638;51.122;13.606;2022-09-20T02:29:41;100280.97;;;8.01;65.37
68656;BME280;55638;51.122;13.606;2022-09-20T02:31:22;100281.81;;;8.01;65.33
68656;BME280;55638;51.122;13.606;2022-09-20T02:34:45;100283.66;;;8.01;65.34
68656;BME280;55638;51.122;13.606;2022-09-20T02:39:32;100288.19;;;8.00;65.25
68656;BME280;55638;51.122;13.606;2022-09-20T02:42:46;100282.81;;;8.00;65.25
68656;BME280;55638;51.122;13.606;2022-09-20T02:47:34;100287.53;;;7.97;65.04
68656;BME280;55638;51.122;13.606;2022-09-20T02:49:10;100288.66;;;7.94;65.05
68656;BME280;55638;51.122;13.606;2022-09-20T02:52:34;100292.44;;;7.92;65.01
68656;BME280;55638;51.122;13.606;2022-09-20T02:54:15;100288.13;;;7.89;65.04
68656;BME280;55638;51.122;13.606;2022-09-20T02:57:47;100291.28;;;7.83;64.92
68656;BME280;55638;51.122;13.606;2022-09-20T02:59:28;100289.69;;;7.80;64.92
68656;BME280;55638;51.122;13.606;2022-09-20T03:01:25;100297.03;;;7.78;64.97
68656;BME280;55638;51.122;13.606;2022-09-20T03:04:38;100296.50;;;7.73;64.96
68656;BME280;55638;51.122;13.606;2022-09-20T03:09:55;100304.28;;;7.65;64.89
68656;BME280;55638;51.122;13.606;2022-09-20T03:11:36;100299.16;;;7.62;65.04
68656;BME280;55638;51.122;13.606;2022-09-20T03:15:01;100313.78;;;7.58;64.96
68656;BME280;55638;51.122;13.606;2022-09-20T03:32:05;100311.47;;;7.41;65.42
68656;BME280;55638;51.122;13.606;2022-09-20T03:35:37;100315.13;;;7.40;65.50
68656;BME280;55638;51.122;13.606;2022-09-20T03:38:55;100311.38;;;7.42;65.66
68656;BME280;55638;51.122;13.606;2022-09-20T03:42:10;100315.75;;;7.43;65.61
68656;BME280;55638;51.122;13.606;2022-09-20T03:43:53;100319.31;;;7.44;65.79
68656;BME280;55638;51.122;13.606;2022-09-20T03:45:51;100312.94;;;7.45;65.74
68656;BME280;55638;51.122;13.606;2022-09-20T03:50:58;100322.53;;;7.49;65.82
68656;BME280;55638;51.122;13.606;2022-09-20T03:55:48;100318.72;;;7.51;65.86
68656;BME280;55638;51.122;13.606;2022-09-20T04:04:41;100315.72;;;7.56;66.05
68656;BME280;55638;51.122;13.606;2022-09-20T04:06:23;100316.56;;;7.56;65.98
68656;BME280;55638;51.122;13.606;2022-09-20T04:09:50;100321.72;;;7.59;66.00
68656;BME280;55638;51.122;13.606;2022-09-20T04:11:30;100317.09;;;7.62;65.94
68656;BME280;55638;51.122;13.606;2022-09-20T04:13:11;100316.13;;;7.63;65.94
68656;BME280;55638;51.122;13.606;2022-09-20T04:14:58;100325.78;;;7.65;65.89
68656;BME280;55638;51.122;13.606;2022-09-20T04:16:36;100320.28;;;7.67;65.96
68656;BME280;55638;51.122;13.606;2022-09-20T04:18:32;100326.53;;;7.67;65.90
68656;BME280;55638;51.122;13.606;2022-09-20T04:20:09;100323.84;;;7.67;65.91
68656;BME280;55638;51.122;13.606;2022-09-20T04:21:58;100325.56;;;7.68;65.83
68656;BME280;55638;51.122;13.606;2022-09-20T04:23:46;100326.53;;;7.67;65.71
68656;BME280;55638;51.122;13.606;2022-09-20T04:25:22;100324.81;;;7.66;65.71
68656;BME280;55638;51.122;13.606;2022-09-20T04:26:59;100329.22;;;7.67;65.75
68656;BME280;55638;51.122;13.606;2022-09-20T04:28:37;100333.63;;;7.68;65.85
68656;BME280;55638;51.122;13.606;2022-09-20T04:31:46;100332.66;;;7.69;65.71
68656;BME280;55638;51.122;13.606;2022-09-20T04:33:28;100330.94;;;7.68;65.70
68656;BME280;55638;51.122;13.606;2022-09-20T04:35:03;100341.69;;;7.68;65.82
68656;BME280;55638;51.122;13.606;2022-09-20T04:36:56;100339.88;;;7.69;65.67
68656;BME280;55638;51.122;13.606;2022-09-20T04:38:28;100333.63;;;7.68;65.77
68656;BME280;55638;51.122;13.606;2022-09-20T04:41:58;100350.50;;;7.70;65.74
68656;BME280;55638;51.122;13.606;2022-09-20T04:43:43;100348.78;;;7.69;65.74
68656;BME280;55638;51.122;13.606;2022-09-20T04:45:32;100343.41;;;7.69;65.72
68656;BME280;55638;51.122;13.606;2022-09-20T04:48:46;100347.78;;;7.70;65.89
68656;BME280;55638;51.122;13.606;2022-09-20T04:50:40;100347.78;;;7.70;65.81
68656;BME280;55638;51.122;13.606;2022-09-20T04:55:47;100345.88;;;7.72;65.77
68656;BME280;55638;51.122;13.606;2022-09-20T05:04:38;100348.34;;;7.75;65.77
68656;BME280;55638;51.122;13.606;2022-09-20T05:15:49;100369.22;;;7.72;65.85
68656;BME280;55638;51.122;13.606;2022-09-20T05:17:29;100360.28;;;7.71;65.78
68656;BME280;55638;51.122;13.606;2022-09-20T05:19:06;100368.34;;;7.71;65.68
68656;BME280;55638;51.122;13.606;2022-09-20T05:20:42;100362.97;;;7.71;65.74
68656;BME280;55638;51.122;13.606;2022-09-20T05:24:15;100365.53;;;7.73;65.76
68656;BME280;55638;51.122;13.606;2022-09-20T05:30:33;100378.88;;;7.74;65.90
68656;BME280;55638;51.122;13.606;2022-09-20T05:32:26;100370.81;;;7.74;65.96
68656;BME280;55638;51.122;13.606;2022-09-20T05:34:15;100369.84;;;7.75;65.91
68656;BME280;55638;51.122;13.606;2022-09-20T05:41:05;100376.69;;;7.79;65.99
68656;BME280;55638;51.122;13.606;2022-09-20T05:47:55;100390.44;;;7.88;66.20
68656;BME280;55638;51.122;13.606;2022-09-20T05:49:44;100393.88;;;7.90;66.11
68656;BME280;55638;51.122;13.606;2022-09-20T05:55:03;100393.41;;;7.96;66.23
68656;BME280;55638;51.122;13.606;2022-09-20T06:01:54;100398.97;;;8.05;66.27
68656;BME280;55638;51.122;13.606;2022-09-20T06:03:34;100398.88;;;8.07;66.28
68656;BME280;55638;51.122;13.606;2022-09-20T06:05:10;100404.88;;;8.11;66.25
68656;BME280;55638;51.122;13.606;2022-09-20T06:06:46;100402.06;;;8.12;66.18
68656;BME280;55638;51.122;13.606;2022-09-20T06:15:19;100406.50;;;8.24;66.26
68656;BME280;55638;51.122;13.606;2022-09-20T06:18:56;100409.97;;;8.26;66.20
68656;BME280;55638;51.122;13.606;2022-09-20T06:20:33;100414.16;;;8.31;66.25
68656;BME280;55638;51.122;13.606;2022-09-20T06:22:12;100418.47;;;8.33;66.25
68656;BME280;55638;51.122;13.606;2022-09-20T06:23:46;100407.47;;;8.36;66.30
68656;BME280;55638;51.122;13.606;2022-09-20T06:26:52;100411.50;;;8.42;66.32
68656;BME280;55638;51.122;13.606;2022-09-20T06:28:37;100411.28;;;8.45;66.41
68656;BME280;55638;51.122;13.606;2022-09-20T06:30:12;100411.03;;;8.48;66.36
68656;BME280;55638;51.122;13.606;2022-09-20T06:31:46;100412.50;;;8.52;66.29
68656;BME280;55638;51.122;13.606;2022-09-20T06:33:18;100411.31;;;8.56;66.36
68656;BME280;55638;51.122;13.606;2022-09-20T06:34:51;100418.31;;;8.59;66.38
68656;BME280;55638;51.122;13.606;2022-09-20T06:36:33;100418.94;;;8.62;66.43
68656;BME280;55638;51.122;13.606;2022-09-20T06:38:36;100410.50;;;8.67;66.36
68656;BME280;55638;51.122;13.606;2022-09-20T06:40:47;100414.56;;;8.72;66.53
68656;BME280;55638;51.122;13.606;2022-09-20T06:42:38;100411.50;;;8.77;66.58
68656;BME280;55638;51.122;13.606;2022-09-20T06:44:09;100414.69;;;8.82;66.62
68656;BME280;55638;51.122;13.606;2022-09-20T06:45:41;100414.31;;;8.87;66.62
68656;BME280;55638;51.122;13.606;2022-09-20T06:47:13;100418.47;;;8.91;66.50
68656;BME280;55638;51.122;13.606;2022-09-20T06:48:45;100415.31;;;8.97;66.69
68656;BME280;55638;51.122;13.606;2022-09-20T06:50:17;100418.53;;;9.02;66.50
68656;BME280;55638;51.122;13.606;2022-09-20T06:51:49;100419.00;;;9.07;66.38
68656;BME280;55638;51.122;13.606;2022-09-20T06:53:25;100422.34;;;9.11;66.32
68656;BME280;55638;51.122;13.606;2022-09-20T06:54:57;100416.56;;;9.15;66.28
68656;BME280;55638;51.122;13.606;2022-09-20T06:56:30;100420.72;;;9.19;66.27
68656;BME280;55638;51.122;13.606;2022-09-20T06:58:02;100424.03;;;9.23;66.38
68656;BME280;55638;51.122;13.606;2022-09-20T06:59:34;100422.84;;;9.27;66.23
68656;BME280;55638;51.122;13.606;2022-09-20T07:01:05;100421.59;;;9.31;66.23
68656;BME280;55638;51.122;13.606;2022-09-20T07:02:37;100431.16;;;9.35;66.18
68656;BME280;55638;51.122;13.606;2022-09-20T07:04:09;100430.91;;;9.38;66.07
68656;BME280;55638;51.122;13.606;2022-09-20T07:05:41;100423.56;;;9.40;66.12
68656;BME280;55638;51.122;13.606;2022-09-20T07:07:15;100436.91;;;9.42;65.86
68656;BME280;55638;51.122;13.606;2022-09-20T07:08:47;100434.13;;;9.43;65.82
68656;BME280;55638;51.122;13.606;2022-09-20T07:10:18;100439.28;;;9.47;65.82
68656;BME280;55638;51.122;13.606;2022-09-20T07:11:50;100445.41;;;9.49;65.89
68656;BME280;55638;51.122;13.606;2022-09-20T07:13:22;100439.06;;;9.50;65.85
68656;BME280;55638;51.122;13.606;2022-09-20T07:14:54;100441.75;;;9.50;65.55
68656;BME280;55638;51.122;13.606;2022-09-20T07:16:26;100444.31;;;9.51;65.53
68656;BME280;55638;51.122;13.606;2022-09-20T07:17:57;100444.31;;;9.51;65.25
68656;BME280;55638;51.122;13.606;2022-09-20T07:19:30;100448.72;;;9.52;64.96
68656;BME280;55638;51.122;13.606;2022-09-20T07:21:02;100445.91;;;9.54;64.95
68656;BME280;55638;51.122;13.606;2022-09-20T07:22:35;100449.47;;;9.54;65.14
68656;BME280;55638;51.122;13.606;2022-09-20T07:24:07;100450.19;;;9.56;65.29
68656;BME280;55638;51.122;13.606;2022-09-20T07:25:39;100452.91;;;9.56;65.21
68656;BME280;55638;51.122;13.606;2022-09-20T07:27:10;100451.91;;;9.57;65.19
68656;BME280;55638;51.122;13.606;2022-09-20T07:28:43;100453.63;;;9.58;65.04
68656;BME280;55638;51.122;13.606;2022-09-20T07:30:14;100455.44;;;9.58;65.00
68656;BME280;55638;51.122;13.606;2022-09-20T07:31:46;100453.63;;;9.58;64.77
68656;BME280;55638;51.122;13.606;2022-09-20T07:33:19;100457.16;;;9.59;65.06
68656;BME280;55638;51.122;13.606;2022-09-20T07:34:52;100460.72;;;9.59;64.95
68656;BME280;55638;51.122;13.606;2022-09-20T07:36:23;100471.38;;;9.61;65.10
68656;BME280;55638;51.122;13.606;2022-09-20T07:37:56;100460.59;;;9.61;65.07
68656;BME280;55638;51.122;13.606;2022-09-20T07:39:28;100468.69;;;9.61;64.56
68656;BME280;55638;51.122;13.606;2022-09-20T07:41:01;100476.66;;;9.62;64.94
68656;BME280;55638;51.122;13.606;2022-09-20T07:42:32;100468.56;;;9.62;64.96
68656;BME280;55638;51.122;13.606;2022-09-20T07:44:04;100470.41;;;9.62;64.90
68656;BME280;55638;51.122;13.606;2022-09-20T07:45:54;100471.38;;;9.61;64.50
68656;BME280;55638;51.122;13.606;2022-09-20T07:47:26;100474.19;;;9.59;64.67
68656;BME280;55638;51.122;13.606;2022-09-20T07:48:58;100472.38;;;9.60;64.66
68656;BME280;55638;51.122;13.606;2022-09-20T07:50:31;100474.19;;;9.59;64.58
68656;BME280;55638;51.122;13.606;2022-09-20T07:52:03;100475.94;;;9.60;65.12
68656;BME280;55638;51.122;13.606;2022-09-20T07:53:35;100477.63;;;9.61;64.64
68656;BME280;55638;51.122;13.606;2022-09-20T07:55:07;100479.34;;;9.62;64.21
68656;BME280;55638;51.122;13.606;2022-09-20T07:56:39;100477.41;;;9.64;64.79
68656;BME280;55638;51.122;13.606;2022-09-20T07:58:11;100474.44;;;9.67;64.67
68656;BME280;55638;51.122;13.606;2022-09-20T07:59:42;100484.84;;;9.72;65.16
68656;BME280;55638;51.122;13.606;2022-09-20T08:01:14;100480.81;;;9.78;65.84
68656;BME280;55638;51.122;13.606;2022-09-20T08:02:46;100486.72;;;9.83;65.57
68656;BME280;55638;51.122;13.606;2022-09-20T08:04:18;100482.03;;;9.85;65.19
68656;BME280;55638;51.122;13.606;2022-09-20T08:05:49;100484.22;;;9.91;65.47
68656;BME280;55638;51.122;13.606;2022-09-20T08:07:21;100485.59;;;9.97;65.48
68656;BME280;55638;51.122;13.606;2022-09-20T08:08:54;100490.59;;;10.01;65.21
68656;BME280;55638;51.122;13.606;2022-09-20T08:10:25;100494.63;;;10.07;65.55
68656;BME280;55638;51.122;13.606;2022-09-20T08:11:57;100497.94;;;10.10;64.52
68656;BME280;55638;51.122;13.606;2022-09-20T08:13:29;100494.88;;;10.15;64.89
68656;BME280;55638;51.122;13.606;2022-09-20T08:15:21;100497.19;;;10.20;63.77
68656;BME280;55638;51.122;13.606;2022-09-20T08:16:53;100495.84;;;10.25;64.97
68656;BME280;55638;51.122;13.606;2022-09-20T08:18:26;100494.59;;;10.29;64.57
68656;BME280;55638;51.122;13.606;2022-09-20T08:19:58;100498.88;;;10.32;63.73
68656;BME280;55638;51.122;13.606;2022-09-20T08:21:31;100495.69;;;10.38;63.85
68656;BME280;55638;51.122;13.606;2022-09-20T08:23:04;100495.19;;;10.44;64.73
68656;BME280;55638;51.122;13.606;2022-09-20T08:24:53;100499.31;;;10.48;62.18
68656;BME280;55638;51.122;13.606;2022-09-20T08:26:25;100505.97;;;10.55;63.76
68656;BME280;55638;51.122;13.606;2022-09-20T08:27:57;100504.44;;;10.62;64.36
68656;BME280;55638;51.122;13.606;2022-09-20T08:29:29;100507.63;;;10.68;63.81
68656;BME280;55638;51.122;13.606;2022-09-20T08:31:06;100502.44;;;10.76;64.24
68656;BME280;55638;51.122;13.606;2022-09-20T08:32:38;100505.47;;;10.82;64.22
68656;BME280;55638;51.122;13.606;2022-09-20T08:34:11;100508.50;;;10.89;64.24
68656;BME280;55638;51.122;13.606;2022-09-20T08:35:47;100506.28;;;10.94;62.99
68656;BME280;55638;51.122;13.606;2022-09-20T08:37:18;100502.31;;;10.98;63.46
68656;BME280;55638;51.122;13.606;2022-09-20T08:38:50;100509.47;;;10.99;63.09
68656;BME280;55638;51.122;13.606;2022-09-20T08:40:42;100502.91;;;11.02;63.36
68656;BME280;55638;51.122;13.606;2022-09-20T08:42:20;100512.03;;;11.01;62.45
68656;BME280;55638;51.122;13.606;2022-09-20T08:43:55;100511.44;;;10.97;60.21
68656;BME280;55638;51.122;13.606;2022-09-20T08:45:27;100509.72;;;10.96;61.71
68656;BME280;55638;51.122;13.606;2022-09-20T08:48:41;100506.28;;;10.94;62.75
68656;BME280;55638;51.122;13.606;2022-09-20T08:50:13;100513.66;;;10.92;63.03
68656;BME280;55638;51.122;13.606;2022-09-20T08:51:48;100516.59;;;10.89;62.59
68656;BME280;55638;51.122;13.606;2022-09-20T08:53:21;100514.78;;;10.90;63.27
68656;BME280;55638;51.122;13.606;2022-09-20T08:54:53;100516.75;;;10.88;63.15
68656;BME280;55638;51.122;13.606;2022-09-20T08:56:29;100520.47;;;10.87;63.38
68656;BME280;55638;51.122;13.606;2022-09-20T08:58:01;100525.84;;;10.87;62.65
68656;BME280;55638;51.122;13.606;2022-09-20T08:59:38;100529.53;;;10.85;62.90
68656;BME280;55638;51.122;13.606;2022-09-20T09:01:22;100524.13;;;10.85;62.57
68656;BME280;55638;51.122;13.606;2022-09-20T09:02:56;100523.28;;;10.85;62.29
68656;BME280;55638;51.122;13.606;2022-09-20T09:04:32;100518.88;;;10.84;62.56
68656;BME280;55638;51.122;13.606;2022-09-20T09:06:09;100526.97;;;10.84;62.59
68656;BME280;55638;51.122;13.606;2022-09-20T09:07:45;100520.72;;;10.83;63.02
68656;BME280;55638;51.122;13.606;2022-09-20T09:09:18;100518.88;;;10.84;62.87
68656;BME280;55638;51.122;13.606;2022-09-20T09:10:51;100525.25;;;10.83;63.18
68656;BME280;55638;51.122;13.606;2022-09-20T09:12:27;100522.56;;;10.83;63.37
68656;BME280;55638;51.122;13.606;2022-09-20T09:14:01;100523.53;;;10.82;63.12
68656;BME280;55638;51.122;13.606;2022-09-20T09:15:35;100522.81;;;10.80;62.89
68656;BME280;55638;51.122;13.606;2022-09-20T09:17:09;100521.09;;;10.79;62.84
68656;BME280;55638;51.122;13.606;2022-09-20T09:18:43;100522.09;;;10.78;63.16
68656;BME280;55638;51.122;13.606;2022-09-20T09:20:19;100519.38;;;10.78;63.36
68656;BME280;55638;51.122;13.606;2022-09-20T09:21:59;100514.09;;;10.76;63.29
68656;BME280;55638;51.122;13.606;2022-09-20T09:23:37;100517.78;;;10.75;63.23
68656;BME280;55638;51.122;13.606;2022-09-20T09:26:47;100510.69;;;10.74;63.52
68656;BME280;55638;51.122;13.606;2022-09-20T09:28:25;100505.28;;;10.74;63.35
68656;BME280;55638;51.122;13.606;2022-09-20T09:30:00;100511.53;;;10.75;63.10
68656;BME280;55638;51.122;13.606;2022-09-20T09:31:31;100517.69;;;10.77;63.74
68656;BME280;55638;51.122;13.606;2022-09-20T09:33:18;100505.00;;;10.77;63.30
68656;BME280;55638;51.122;13.606;2022-09-20T09:34:51;100520.97;;;10.80;63.40
68656;BME280;55638;51.122;13.606;2022-09-20T09:36:23;100515.31;;;10.83;63.90
68656;BME280;55638;51.122;13.606;2022-09-20T09:38:00;100514.16;;;10.86;63.93
68656;BME280;55638;51.122;13.606;2022-09-20T09:39:33;100524.47;;;10.92;64.05
68656;BME280;55638;51.122;13.606;2022-09-20T09:41:18;100517.69;;;10.98;64.50
68656;BME280;55638;51.122;13.606;2022-09-20T09:43:00;100520.59;;;11.06;64.49
68656;BME280;55638;51.122;13.606;2022-09-20T09:44:32;100522.50;;;11.15;65.17
68656;BME280;55638;51.122;13.606;2022-09-20T09:46:20;100517.31;;;11.23;65.17
68656;BME280;55638;51.122;13.606;2022-09-20T09:47:54;100519.81;;;11.36;65.29
68656;BME280;55638;51.122;13.606;2022-09-20T09:49:32;100521.56;;;11.47;64.88
68656;BME280;55638;51.122;13.606;2022-09-20T09:51:11;100524.22;;;11.58;64.76
68656;BME280;55638;51.122;13.606;2022-09-20T09:52:55;100524.13;;;11.69;63.77
68656;BME280;55638;51.122;13.606;2022-09-20T09:54:30;100524.06;;;11.81;64.07
68656;BME280;55638;51.122;13.606;2022-09-20T09:58:14;100524.97;;;12.00;64.10
68656;BME280;55638;51.122;13.606;2022-09-20T10:03:27;100533.19;;;12.30;63.79
68656;BME280;55638;51.122;13.606;2022-09-20T10:05:03;100526.91;;;12.39;64.00
68656;BME280;55638;51.122;13.606;2022-09-20T10:06:43;100528.94;;;12.46;63.73
68656;BME280;55638;51.122;13.606;2022-09-20T10:20:12;100530.72;;;13.06;63.71
68656;BME280;55638;51.122;13.606;2022-09-20T10:23:32;100516.84;;;13.18;62.99
68656;BME280;55638;51.122;13.606;2022-09-20T10:27:17;100523.38;;;13.35;61.59
68656;BME280;55638;51.122;13.606;2022-09-20T10:30:25;100530.81;;;13.53;63.68
68656;BME280;55638;51.122;13.606;2022-09-20T10:32:13;100524.78;;;13.59;62.99
68656;BME280;55638;51.122;13.606;2022-09-20T10:34:04;100526.91;;;13.65;63.04
68656;BME280;55638;51.122;13.606;2022-09-20T10:35:54;100524.75;;;13.69;62.33
68656;BME280;55638;51.122;13.606;2022-09-20T10:41:08;100524.03;;;13.76;62.05
68656;BME280;55638;51.122;13.606;2022-09-20T10:43:05;100531.69;;;13.81;62.33
68656;BME280;55638;51.122;13.606;2022-09-20T10:46:28;100538.28;;;13.78;55.29
68656;BME280;55638;51.122;13.606;2022-09-20T10:48:07;100525.59;;;13.79;56.95
68656;BME280;55638;51.122;13.606;2022-09-20T10:49:46;100533.72;;;13.79;57.11
68656;BME280;55638;51.122;13.606;2022-09-20T10:51:33;100533.56;;;13.80;58.89
68656;BME280;55638;51.122;13.606;2022-09-20T10:53:19;100527.59;;;13.77;56.61
68656;BME280;55638;51.122;13.606;2022-09-20T10:56:49;100529.16;;;13.79;59.27
68656;BME280;55638;51.122;13.606;2022-09-20T11:03:46;100529.97;;;13.90;59.32
68656;BME280;55638;51.122;13.606;2022-09-20T11:06:59;100534.53;;;13.89;58.35
68656;BME280;55638;51.122;13.606;2022-09-20T11:08:35;100530.81;;;13.90;59.47
68656;BME280;55638;51.122;13.606;2022-09-20T11:10:19;100535.41;;;13.90;58.89
68656;BME280;55638;51.122;13.606;2022-09-20T11:12:08;100531.97;;;13.87;56.51
68656;BME280;55638;51.122;13.606;2022-09-20T11:15:31;100533.69;;;13.88;58.60
68656;BME280;55638;51.122;13.606;2022-09-20T11:17:16;100527.97;;;13.92;60.25
68656;BME280;55638;51.122;13.606;2022-09-20T11:18:53;100527.63;;;13.95;61.10
68656;BME280;55638;51.122;13.606;2022-09-20T11:20:31;100528.34;;;13.97;59.46
68656;BME280;55638;51.122;13.606;2022-09-20T11:22:12;100536.91;;;14.02;60.67
68656;BME280;55638;51.122;13.606;2022-09-20T11:23:48;100537.59;;;14.04;60.22
68656;BME280;55638;51.122;13.606;2022-09-20T11:25:29;100539.63;;;14.02;55.41
68656;BME280;55638;51.122;13.606;2022-09-20T11:27:05;100536.91;;;14.02;58.00
68656;BME280;55638;51.122;13.606;2022-09-20T11:28:42;100539.47;;;14.03;59.68
68656;BME280;55638;51.122;13.606;2022-09-20T11:30:17;100538.44;;;14.04;60.14
68656;BME280;55638;51.122;13.606;2022-09-20T11:31:49;100540.47;;;14.02;54.77
68656;BME280;55638;51.122;13.606;2022-09-20T11:33:30;100548.34;;;14.05;57.27
68656;BME280;55638;51.122;13.606;2022-09-20T11:36:51;100533.91;;;14.05;55.88
68656;BME280;55638;51.122;13.606;2022-09-20T11:38:26;100537.16;;;14.08;59.31
68656;BME280;55638;51.122;13.606;2022-09-20T11:40:07;100535.84;;;14.13;59.41
68656;BME280;55638;51.122;13.606;2022-09-20T11:41:43;100533.56;;;14.18;60.41
68656;BME280;55638;51.122;13.606;2022-09-20T11:43:15;100540.94;;;14.25;60.22
68656;BME280;55638;51.122;13.606;2022-09-20T11:44:49;100535.63;;;14.33;60.43
68656;BME280;55638;51.122;13.606;2022-09-20T11:46:26;100535.41;;;14.45;61.88